Time;durP1;ratioP1;P1;durP2;ratioP2;P2;SDS_P1;SDS_P2;PMS_P1;PMS_P2;Temp;Humidity;BMP_temperature;BMP_pressure;BME280_temperature;BME280_humidity;BME280_pressure;Samples;Min_cycle;Max_cycle;Signal;HPM_P1;HPM_P2
2021/12/28 00:01:10;;;;;;;9.48;5.40;;;0.80;99.90;;;;;;5034535;28;20040;-78
2021/12/28 00:03:37;;;;;;;12.15;5.00;;;0.80;99.90;;;;;;5049742;23;20049;-84
2021/12/28 00:06:04;;;;;;;12.32;7.05;;;0.80;99.90;;;;;;5072593;28;20039;-85
2021/12/28 00:08:30;;;;;;;12.68;6.85;;;0.80;99.90;;;;;;5073982;28;20036;-85
2021/12/28 00:10:56;;;;;;;12.55;6.70;;;0.90;99.90;;;;;;5072334;28;20024;-86
2021/12/28 00:13:23;;;;;;;12.88;7.43;;;0.90;99.90;;;;;;5070708;28;20028;-86
2021/12/28 00:18:21;;;;;;;12.48;7.50;;;0.90;99.90;;;;;;5069865;28;20035;-86
2021/12/28 00:20:49;;;;;;;11.77;6.82;;;0.90;99.90;;;;;;5072215;28;20078;-86
2021/12/28 00:23:17;;;;;;;11.48;6.47;;;0.90;99.90;;;;;;5053782;28;20495;-86
2021/12/28 00:25:45;;;;;;;12.63;6.53;;;0.90;99.90;;;;;;5065883;28;20392;-87
2021/12/28 00:28:10;;;;;;;14.35;7.28;;;0.90;99.90;;;;;;5072660;28;20480;-86
2021/12/28 00:30:37;;;;;;;11.93;6.88;;;0.90;99.90;;;;;;5072217;28;20024;-86
2021/12/28 00:33:04;;;;;;;11.13;6.47;;;1.00;99.90;;;;;;5061381;28;20063;-86
2021/12/28 00:35:32;;;;;;;12.23;6.50;;;0.90;99.90;;;;;;5085610;28;20029;-86
2021/12/28 00:37:58;;;;;;;11.98;6.15;;;0.90;99.90;;;;;;5053501;28;20032;-82
2021/12/28 00:40:24;;;;;;;9.80;6.15;;;0.80;99.90;;;;;;5063020;28;20477;-82
2021/12/28 00:42:50;;;;;;;10.15;6.40;;;0.80;99.90;;;;;;5062971;28;20025;-82
2021/12/28 00:45:17;;;;;;;12.43;6.30;;;0.80;99.90;;;;;;5061183;28;20119;-82
2021/12/28 00:47:43;;;;;;;10.38;6.47;;;0.80;99.90;;;;;;5063573;28;20086;-82
2021/12/28 00:50:13;;;;;;;10.50;5.72;;;0.80;99.90;;;;;;5063032;28;20053;-82
2021/12/28 00:52:39;;;;;;;9.73;5.47;;;0.80;99.90;;;;;;5062248;28;20025;-82
2021/12/28 00:55:06;;;;;;;10.68;5.78;;;0.90;99.90;;;;;;5062248;28;20048;-82
2021/12/28 00:57:32;;;;;;;8.85;5.40;;;0.90;99.90;;;;;;5062925;28;20029;-82
2021/12/28 00:59:58;;;;;;;13.98;7.15;;;0.90;99.90;;;;;;5062305;28;20032;-82
2021/12/28 01:02:23;;;;;;;11.50;5.75;;;0.90;99.90;;;;;;5061670;28;20024;-82
2021/12/28 01:04:49;;;;;;;10.07;6.13;;;0.80;99.90;;;;;;5067710;28;20024;-82
2021/12/28 01:07:15;;;;;;;12.27;6.65;;;0.80;99.90;;;;;;5073634;28;20024;-83
2021/12/28 01:09:42;;;;;;;13.68;6.07;;;0.80;99.90;;;;;;5068244;28;20021;-82
2021/12/28 01:12:10;;;;;;;11.70;6.25;;;0.80;99.90;;;;;;5066230;28;20071;-83
2021/12/28 01:14:37;;;;;;;12.35;6.38;;;0.80;99.90;;;;;;5061644;28;20428;-83
2021/12/28 01:17:04;;;;;;;10.23;5.88;;;0.80;99.90;;;;;;5061053;28;20025;-83
2021/12/28 01:19:29;;;;;;;10.93;5.95;;;0.80;99.90;;;;;;5060424;28;20479;-83
2021/12/28 01:21:55;;;;;;;9.48;5.93;;;0.80;99.90;;;;;;5066847;28;20066;-83
2021/12/28 01:24:21;;;;;;;9.75;5.63;;;0.80;99.90;;;;;;5080095;28;20059;-83
2021/12/28 01:26:47;;;;;;;9.85;5.03;;;0.80;99.90;;;;;;5081103;28;20464;-82
2021/12/28 01:29:13;;;;;;;11.55;6.25;;;0.70;99.90;;;;;;5079948;28;20051;-83
2021/12/28 01:31:39;;;;;;;11.15;5.93;;;0.80;99.90;;;;;;5079911;28;20469;-82
2021/12/28 01:34:06;;;;;;;11.15;6.10;;;0.70;99.90;;;;;;5081332;28;20025;-82
2021/12/28 01:36:32;;;;;;;8.85;5.20;;;0.70;99.90;;;;;;5079865;28;20090;-82
2021/12/28 01:38:58;;;;;;;8.98;5.18;;;0.70;99.90;;;;;;5079429;28;20495;-82
2021/12/28 01:41:24;;;;;;;10.15;5.60;;;0.60;99.90;;;;;;5081428;28;20032;-82
2021/12/28 01:43:59;;;;;;;8.63;5.95;;;0.60;99.90;;;;;;5079558;28;20024;-82
2021/12/28 01:46:25;;;;;;;9.75;5.78;;;0.60;99.90;;;;;;5080422;28;20012;-83
2021/12/28 01:48:51;;;;;;;8.18;4.47;;;0.60;99.90;;;;;;5075143;28;20029;-82
2021/12/28 01:51:19;;;;;;;9.73;4.75;;;0.50;99.90;;;;;;5060156;28;20021;-82
2021/12/28 01:53:47;;;;;;;8.10;4.75;;;0.50;99.90;;;;;;5059504;28;20033;-82
2021/12/28 01:56:34;;;;;;;15.88;7.95;;;0.50;99.90;;;;;;5060878;28;20484;-82
2021/12/28 01:59:01;;;;;;;29.58;14.48;;;0.40;99.90;;;;;;5059208;28;20033;-82
2021/12/28 02:01:27;;;;;;;12.65;7.15;;;0.40;99.90;;;;;;5060937;28;20476;-82
2021/12/28 02:03:53;;;;;;;7.18;4.35;;;0.40;99.90;;;;;;5058883;28;20120;-82
2021/12/28 02:06:22;;;;;;;6.80;4.03;;;0.30;99.90;;;;;;5060309;28;20396;-82
2021/12/28 02:08:48;;;;;;;6.68;3.80;;;0.40;99.90;;;;;;5058551;28;20043;-82
2021/12/28 02:11:14;;;;;;;8.13;4.00;;;0.40;99.90;;;;;;5060135;28;20029;-82
2021/12/28 02:13:40;;;;;;;6.07;3.83;;;0.30;99.90;;;;;;5061005;28;20416;-82
2021/12/28 02:16:06;;;;;;;9.25;4.00;;;0.30;99.90;;;;;;5059828;28;20055;-81
2021/12/28 02:18:34;;;;;;;7.25;3.97;;;0.30;99.90;;;;;;5063570;28;20080;-82
2021/12/28 02:21:02;;;;;;;6.25;3.72;;;0.30;99.90;;;;;;5078935;28;20017;-81
2021/12/28 02:23:28;;;;;;;8.25;3.78;;;0.30;99.90;;;;;;5060201;28;20531;-81
2021/12/28 02:25:54;;;;;;;7.60;3.45;;;0.30;99.90;;;;;;5059089;28;20025;-82
2021/12/28 02:28:20;;;;;;;7.50;4.30;;;0.30;99.90;;;;;;5058969;28;20469;-81
2021/12/28 02:30:49;;;;;;;6.82;3.50;;;0.30;99.90;;;;;;5058569;28;20115;-81
2021/12/28 02:33:17;;;;;;;7.93;3.53;;;0.30;99.90;;;;;;5059503;28;20025;-81
2021/12/28 02:35:43;;;;;;;7.25;4.38;;;0.30;99.90;;;;;;5056005;28;20063;-81
2021/12/28 02:38:11;;;;;;;7.07;3.97;;;0.30;99.90;;;;;;5058932;28;20040;-82
2021/12/28 02:40:41;;;;;;;5.97;3.78;;;0.20;99.90;;;;;;5060508;28;20570;-81
2021/12/28 02:43:10;;;;;;;7.82;4.00;;;0.20;99.90;;;;;;5059378;28;20025;-81
2021/12/28 02:45:39;;;;;;;6.53;3.78;;;0.20;99.90;;;;;;5060699;28;20029;-81
2021/12/28 02:48:07;;;;;;;5.57;3.17;;;0.20;99.90;;;;;;5059687;28;20021;-81
2021/12/28 02:50:39;;;;;;;5.97;3.30;;;0.20;99.90;;;;;;5061094;28;20047;-81
2021/12/28 02:53:06;;;;;;;5.47;3.67;;;0.20;99.90;;;;;;5059307;28;20080;-81
2021/12/28 02:55:33;;;;;;;6.50;3.38;;;0.10;99.90;;;;;;5058635;28;20534;-81
2021/12/28 02:58:03;;;;;;;6.28;3.38;;;0.10;99.90;;;;;;5059583;28;20021;-81
2021/12/28 03:00:44;;;;;;;6.70;3.60;;;0.10;99.90;;;;;;5058337;28;20039;-81
2021/12/28 03:03:17;;;;;;;7.65;3.60;;;0.10;99.90;;;;;;5058951;28;20021;-82
2021/12/28 03:05:46;;;;;;;6.82;3.72;;;0.10;99.90;;;;;;5058153;28;20052;-82
2021/12/28 03:08:13;;;;;;;5.45;3.50;;;0.10;99.90;;;;;;5057887;28;20029;-82
2021/12/28 03:10:40;;;;;;;7.57;4.50;;;0.10;99.90;;;;;;5058453;28;20029;-82
2021/12/28 03:13:08;;;;;;;5.82;3.55;;;0.00;99.90;;;;;;5058050;28;20025;-81
2021/12/28 03:15:34;;;;;;;6.88;3.90;;;0.00;99.90;;;;;;5057691;28;20033;-82
2021/12/28 03:18:00;;;;;;;7.25;4.03;;;-0.10;99.90;;;;;;5059399;28;20113;-82
2021/12/28 03:20:27;;;;;;;7.72;4.30;;;-0.10;99.90;;;;;;5058010;28;20025;-82
2021/12/28 03:22:53;;;;;;;6.63;3.80;;;-0.20;99.90;;;;;;5073321;28;20511;-82
2021/12/28 03:25:18;;;;;;;7.57;4.00;;;-0.20;99.90;;;;;;5077765;28;20017;-82
2021/12/28 03:27:44;;;;;;;5.95;3.20;;;-0.30;99.90;;;;;;5079301;28;20024;-82
2021/12/28 03:30:15;;;;;;;5.80;3.40;;;-0.30;99.90;;;;;;5079130;28;20066;-82
2021/12/28 03:32:41;;;;;;;6.22;3.92;;;-0.30;99.90;;;;;;5077875;28;20024;-82
2021/12/28 03:35:09;;;;;;;7.47;4.18;;;-0.30;99.90;;;;;;5076062;28;20103;-82
2021/12/28 03:37:35;;;;;;;4.97;2.67;;;-0.30;99.90;;;;;;5074494;28;20032;-81
2021/12/28 03:40:04;;;;;;;5.22;2.78;;;-0.40;99.90;;;;;;5059079;28;20084;-81
2021/12/28 03:42:29;;;;;;;5.50;2.97;;;-0.40;99.90;;;;;;5054591;28;20488;-81
2021/12/28 03:44:55;;;;;;;4.95;3.03;;;-0.40;99.90;;;;;;5052984;28;20029;-81
2021/12/28 03:47:21;;;;;;;16.45;8.02;;;-0.40;99.90;;;;;;5054670;28;20048;-82
2021/12/28 03:49:46;;;;;;;14.90;7.80;;;-0.40;99.90;;;;;;5053026;28;20108;-82
2021/12/28 03:52:12;;;;;;;14.82;7.55;;;-0.40;99.90;;;;;;5062623;28;20028;-81
2021/12/28 03:54:38;;;;;;;12.48;6.50;;;-0.40;99.90;;;;;;5071912;28;20017;-82
2021/12/28 03:57:04;;;;;;;11.18;6.03;;;-0.40;99.90;;;;;;5072040;28;20047;-82
2021/12/28 03:59:31;;;;;;;7.43;4.20;;;-0.40;99.90;;;;;;5072828;28;20031;-82
2021/12/28 04:01:57;;;;;;;7.90;4.35;;;-0.40;99.90;;;;;;5072904;28;20074;-83
2021/12/28 04:04:24;;;;;;;5.82;3.35;;;-0.40;99.90;;;;;;5072926;28;20040;-82
2021/12/28 04:06:49;;;;;;;5.22;3.55;;;-0.40;99.90;;;;;;5072570;28;20028;-82
2021/12/28 04:09:23;;;;;;;5.63;3.42;;;-0.40;99.90;;;;;;5073040;28;20037;-83
2021/12/28 04:11:49;;;;;;;6.18;3.38;;;-0.40;99.90;;;;;;5073468;28;20028;-83
2021/12/28 04:14:15;;;;;;;8.85;4.22;;;-0.40;99.90;;;;;;5077000;28;20028;-83
2021/12/28 04:16:41;;;;;;;9.15;5.13;;;-0.40;99.90;;;;;;5076990;28;20024;-82
2021/12/28 04:19:08;;;;;;;7.05;3.60;;;-0.50;99.90;;;;;;5077098;28;20035;-82
2021/12/28 04:21:35;;;;;;;6.60;3.50;;;-0.50;99.90;;;;;;5072208;28;20087;-82
2021/12/28 04:24:01;;;;;;;5.22;3.13;;;-0.60;99.90;;;;;;5056465;28;20049;-83
2021/12/28 04:26:28;;;;;;;5.00;3.00;;;-0.70;99.90;;;;;;5057283;28;20055;-83
2021/12/28 04:28:54;;;;;;;7.20;3.88;;;-0.70;99.90;;;;;;5057735;28;20055;-82
2021/12/28 04:31:20;;;;;;;7.75;3.38;;;-0.80;99.90;;;;;;5058098;28;20025;-83
2021/12/28 04:33:46;;;;;;;7.40;2.90;;;-0.90;99.90;;;;;;5056508;28;20033;-82
2021/12/28 04:36:14;;;;;;;5.22;3.13;;;-1.10;99.90;;;;;;5055576;28;20025;-82
2021/12/28 04:38:42;;;;;;;7.32;3.17;;;-1.20;99.90;;;;;;5061245;28;20025;-83
2021/12/28 04:41:10;;;;;;;6.03;2.80;;;-1.20;99.90;;;;;;5061179;28;20032;-83
2021/12/28 04:43:36;;;;;;;6.30;2.95;;;-1.20;99.90;;;;;;5059518;28;20025;-83
2021/12/28 04:46:02;;;;;;;7.00;3.42;;;-1.20;99.90;;;;;;5059589;28;20056;-83
2021/12/28 04:48:27;;;;;;;6.07;3.10;;;-1.20;99.90;;;;;;5059802;28;20047;-83
2021/12/28 04:50:53;;;;;;;6.55;3.55;;;-1.10;99.90;;;;;;5059767;28;20485;-83
2021/12/28 04:53:19;;;;;;;5.50;3.22;;;-1.10;99.90;;;;;;5058841;28;20051;-83
2021/12/28 04:55:47;;;;;;;6.72;3.47;;;-1.00;99.90;;;;;;5057959;28;20052;-83
2021/12/28 04:58:14;;;;;;;6.22;3.70;;;-1.00;99.90;;;;;;5055897;28;20029;-83
2021/12/28 05:00:41;;;;;;;5.55;3.33;;;-0.90;99.90;;;;;;5066758;28;20156;-83
2021/12/28 05:03:07;;;;;;;6.78;3.30;;;-0.90;99.90;;;;;;5074865;28;20090;-83
2021/12/28 05:05:33;;;;;;;5.85;3.28;;;-0.90;99.90;;;;;;5075026;28;20418;-83
2021/12/28 05:07:59;;;;;;;8.15;4.15;;;-0.90;99.90;;;;;;5074871;28;20028;-84
2021/12/28 05:10:25;;;;;;;6.72;3.20;;;-0.90;99.90;;;;;;5074925;28;20206;-83
2021/12/28 05:12:51;;;;;;;8.52;4.38;;;-0.90;99.90;;;;;;5074755;28;20078;-83
2021/12/28 05:15:18;;;;;;;6.45;3.38;;;-0.90;99.90;;;;;;5074809;28;20483;-83
2021/12/28 05:17:44;;;;;;;8.02;3.83;;;-0.90;99.90;;;;;;5056929;28;20408;-83
2021/12/28 05:20:10;;;;;;;54.00;21.33;;;-0.90;99.90;;;;;;5054600;28;20025;-83
2021/12/28 05:22:36;;;;;;;87.50;35.55;;;-0.90;99.90;;;;;;5054448;28;20031;-83
2021/12/28 05:25:03;;;;;;;18.20;10.70;;;-1.00;99.90;;;;;;5053752;28;20029;-83
2021/12/28 05:27:29;;;;;;;14.30;7.20;;;-1.00;99.90;;;;;;5055648;28;20484;-83
2021/12/28 05:29:55;;;;;;;9.73;5.70;;;-1.10;99.90;;;;;;5054502;28;20025;-83
2021/12/28 05:32:21;;;;;;;8.88;4.70;;;-1.20;99.90;;;;;;5055530;28;20023;-83
2021/12/28 05:34:46;;;;;;;8.70;4.55;;;-1.10;99.90;;;;;;5054740;28;20029;-83
2021/12/28 05:37:12;;;;;;;6.97;3.60;;;-1.10;99.90;;;;;;5054523;28;20107;-84
2021/12/28 05:39:38;;;;;;;7.50;4.53;;;-1.10;99.90;;;;;;5054293;28;20079;-82
2021/12/28 05:42:05;;;;;;;6.50;4.00;;;-1.10;99.90;;;;;;5054365;28;20059;-83
2021/12/28 05:44:31;;;;;;;11.30;5.65;;;-1.10;99.90;;;;;;5054948;28;20045;-83
2021/12/28 05:46:56;;;;;;;10.55;6.03;;;-1.10;99.90;;;;;;5054676;28;20057;-83
2021/12/28 05:49:25;;;;;;;11.93;5.65;;;-1.10;99.90;;;;;;5055685;28;20024;-83
2021/12/28 05:51:51;;;;;;;10.10;5.63;;;-1.20;99.90;;;;;;5054077;28;20078;-83
2021/12/28 05:54:17;;;;;;;9.63;5.80;;;-1.30;99.90;;;;;;5054043;28;20192;-83
2021/12/28 05:56:44;;;;;;;12.32;7.10;;;-1.30;99.90;;;;;;5054338;28;20103;-83
2021/12/28 05:59:10;;;;;;;12.90;8.25;;;-1.40;99.90;;;;;;5054295;28;20036;-83
2021/12/28 06:01:36;;;;;;;14.43;8.95;;;-1.40;99.90;;;;;;5055284;28;20025;-83
2021/12/28 06:04:03;;;;;;;15.25;9.25;;;-1.50;99.90;;;;;;5054319;28;20047;-84
2021/12/28 06:06:28;;;;;;;11.13;6.35;;;-1.40;99.90;;;;;;5070442;28;20031;-83
2021/12/28 06:08:54;;;;;;;8.30;5.38;;;-1.40;99.90;;;;;;5073523;28;20392;-83
2021/12/28 06:11:20;;;;;;;8.32;4.38;;;-1.40;99.90;;;;;;5075319;28;20043;-83
2021/12/28 06:13:46;;;;;;;6.80;4.15;;;-1.40;99.90;;;;;;5074313;28;20021;-83
2021/12/28 06:16:12;;;;;;;7.88;4.13;;;-1.40;99.90;;;;;;5069385;28;20116;-83
2021/12/28 06:18:38;;;;;;;8.73;4.55;;;-1.40;99.90;;;;;;5053763;28;20051;-83
2021/12/28 06:21:04;;;;;;;13.05;6.40;;;-1.40;99.90;;;;;;5054791;28;20075;-83
2021/12/28 06:23:30;;;;;;;27.50;12.05;;;-1.40;99.90;;;;;;5053637;28;20112;-83
2021/12/28 06:25:56;;;;;;;24.58;11.77;;;-1.40;99.90;;;;;;5054941;28;20053;-83
2021/12/28 06:28:22;;;;;;;23.02;10.00;;;-1.40;99.90;;;;;;5053633;28;20017;-83
2021/12/28 06:30:48;;;;;;;17.90;9.07;;;-1.50;99.90;;;;;;5054987;28;20034;-83
2021/12/28 06:33:14;;;;;;;14.60;7.47;;;-1.50;99.90;;;;;;5053492;28;20477;-83
2021/12/28 06:35:39;;;;;;;13.55;7.03;;;-1.50;99.90;;;;;;5053287;28;20021;-83
2021/12/28 06:38:05;;;;;;;11.45;6.05;;;-1.50;99.90;;;;;;5054771;28;20434;-83
2021/12/28 06:40:31;;;;;;;11.00;4.95;;;-1.50;99.90;;;;;;5049369;23;20041;-83
2021/12/28 06:42:57;;;;;;;12.07;4.68;;;-1.50;99.90;;;;;;5033458;28;20022;-83
2021/12/28 06:45:22;;;;;;;6.40;3.65;;;-1.60;99.90;;;;;;5034578;28;20029;-83
2021/12/28 06:47:51;;;;;;;4.75;3.17;;;-1.60;99.90;;;;;;5032826;28;20109;-83
2021/12/28 06:50:17;;;;;;;7.88;3.72;;;-1.70;99.90;;;;;;5036999;28;20079;-80
2021/12/28 06:52:43;;;;;;;5.65;3.22;;;-1.70;99.90;;;;;;5036762;28;20409;-80
2021/12/28 06:55:10;;;;;;;5.45;3.30;;;-1.70;99.90;;;;;;5037189;28;20026;-81
2021/12/28 06:57:36;;;;;;;8.07;3.53;;;-1.70;99.90;;;;;;5035645;28;20083;-80
2021/12/28 07:00:06;;;;;;;6.95;3.95;;;-1.70;99.90;;;;;;5035099;28;20022;-80
2021/12/28 07:02:31;;;;;;;6.55;3.30;;;-1.70;99.90;;;;;;5036169;28;20054;-80
2021/12/28 07:04:57;;;;;;;10.40;5.18;;;-1.70;99.90;;;;;;5036248;28;20104;-80
2021/12/28 07:07:23;;;;;;;11.18;4.95;;;-1.70;99.90;;;;;;5036205;28;20025;-80
2021/12/28 07:09:48;;;;;;;9.68;5.05;;;-1.70;99.90;;;;;;5035912;28;20021;-80
2021/12/28 07:12:14;;;;;;;9.77;4.55;;;-1.60;99.90;;;;;;5034842;28;20018;-80
2021/12/28 07:14:40;;;;;;;7.70;4.78;;;-1.60;99.90;;;;;;5035610;28;20152;-80
2021/12/28 07:17:06;;;;;;;8.00;4.53;;;-1.50;99.90;;;;;;5035618;28;20072;-80
2021/12/28 07:19:31;;;;;;;7.72;4.10;;;-1.50;99.90;;;;;;5034793;28;20025;-80
2021/12/28 07:21:57;;;;;;;5.68;3.45;;;-1.40;99.90;;;;;;5034395;28;20037;-81
2021/12/28 07:24:23;;;;;;;8.27;4.00;;;-1.40;99.90;;;;;;5035710;28;20022;-81
2021/12/28 07:26:49;;;;;;;12.13;6.20;;;-1.40;99.90;;;;;;5035698;28;20473;-80
2021/12/28 07:29:15;;;;;;;15.05;7.53;;;-1.40;99.90;;;;;;5034530;28;20057;-80
2021/12/28 07:31:41;;;;;;;13.80;6.57;;;-1.30;99.90;;;;;;5035761;28;20104;-80
2021/12/28 07:34:06;;;;;;;12.15;5.55;;;-1.30;99.90;;;;;;5028075;28;20088;-81
2021/12/28 07:36:33;;;;;;;8.95;4.90;;;-1.30;99.90;;;;;;5014212;28;20478;-80
2021/12/28 07:38:59;;;;;;;7.65;3.88;;;-1.30;99.90;;;;;;5015538;28;20502;-81
2021/12/28 07:41:25;;;;;;;7.53;4.30;;;-1.30;99.90;;;;;;5015652;28;20496;-80
2021/12/28 07:43:51;;;;;;;8.85;4.97;;;-1.30;99.90;;;;;;5014729;28;20026;-81
2021/12/28 07:46:16;;;;;;;6.78;3.90;;;-1.30;99.90;;;;;;5016346;28;20026;-80
2021/12/28 07:48:42;;;;;;;7.32;4.47;;;-1.30;99.90;;;;;;5022162;28;20022;-81
2021/12/28 07:51:08;;;;;;;7.07;4.53;;;-1.20;99.90;;;;;;5024147;28;20018;-81
2021/12/28 07:53:35;;;;;;;9.05;5.28;;;-1.20;99.90;;;;;;5042122;28;20045;-81
2021/12/28 07:56:02;;;;;;;7.85;4.50;;;-1.10;99.90;;;;;;5040827;28;20025;-80
2021/12/28 07:58:28;;;;;;;9.00;5.25;;;-1.00;99.90;;;;;;5042435;28;20026;-81
2021/12/28 08:00:54;;;;;;;7.97;4.75;;;-1.00;99.90;;;;;;5042429;28;20034;-81
2021/12/28 08:03:22;;;;;;;9.38;4.47;;;-0.90;99.90;;;;;;5042401;28;20025;-81
2021/12/28 08:05:49;;;;;;;9.65;5.07;;;-0.90;99.90;;;;;;5042103;28;20014;-81
2021/12/28 08:08:15;;;;;;;8.52;4.40;;;-0.80;99.90;;;;;;5042294;28;20028;-80
2021/12/28 08:10:41;;;;;;;7.78;4.28;;;-0.80;99.90;;;;;;5042285;28;20052;-80
2021/12/28 08:13:07;;;;;;;9.10;5.60;;;-0.70;99.90;;;;;;5043106;28;20030;-80
2021/12/28 08:15:33;;;;;;;26.20;14.90;;;-0.70;99.90;;;;;;5042843;28;20435;-81
2021/12/28 08:17:58;;;;;;;15.80;10.95;;;-0.70;99.90;;;;;;5041070;28;20194;-81
2021/12/28 08:20:24;;;;;;;12.07;8.02;;;-0.70;99.90;;;;;;5041430;28;20052;-80
2021/12/28 08:22:50;;;;;;;15.32;8.68;;;-0.70;99.90;;;;;;5039202;28;20040;-80
2021/12/28 08:25:18;;;;;;;27.63;13.38;;;-0.70;99.90;;;;;;5041194;28;20025;-80
2021/12/28 08:27:44;;;;;;;19.02;10.23;;;-0.70;99.90;;;;;;5042101;28;20029;-81
2021/12/28 08:30:11;;;;;;;17.80;10.77;;;-0.60;99.90;;;;;;5042592;28;20071;-81
2021/12/28 08:32:37;;;;;;;11.55;6.38;;;-0.60;99.90;;;;;;5041446;28;20025;-81
2021/12/28 08:35:04;;;;;;;9.77;5.07;;;-0.60;99.90;;;;;;5041753;28;20025;-81
2021/12/28 08:37:30;;;;;;;8.20;4.47;;;-0.60;99.90;;;;;;5022452;28;20083;-81
2021/12/28 08:39:56;;;;;;;8.20;4.55;;;-0.60;99.90;;;;;;5022229;28;20124;-81
2021/12/28 08:42:22;;;;;;;9.25;4.90;;;-0.60;99.90;;;;;;5022488;28;20076;-81
2021/12/28 08:44:48;;;;;;;17.58;7.22;;;-0.50;99.90;;;;;;5022239;28;20028;-81
2021/12/28 08:47:14;;;;;;;15.93;9.40;;;-0.40;99.90;;;;;;5022094;28;20025;-80
2021/12/28 08:49:40;;;;;;;14.68;9.32;;;-0.40;99.90;;;;;;5020994;28;20508;-80
2021/12/28 08:52:06;;;;;;;21.10;9.27;;;-0.40;99.90;;;;;;5033024;28;20033;-80
2021/12/28 08:54:32;;;;;;;20.20;10.77;;;-0.40;99.90;;;;;;5040963;28;20060;-81
2021/12/28 08:56:58;;;;;;;16.23;9.18;;;-0.50;99.90;;;;;;5042372;28;20025;-80
2021/12/28 08:59:24;;;;;;;15.90;7.20;;;-0.50;99.90;;;;;;5037233;28;20504;-80
2021/12/28 09:01:50;;;;;;;12.45;7.03;;;-0.40;99.90;;;;;;5038842;28;20026;-80
2021/12/28 09:04:17;;;;;;;14.52;6.88;;;-0.40;99.90;;;;;;5039521;28;20014;-80
2021/12/28 09:06:45;;;;;;;17.35;9.07;;;-0.40;99.90;;;;;;5038918;28;20018;-81
2021/12/28 09:09:10;;;;;;;23.27;11.23;;;-0.40;99.90;;;;;;5037955;28;20018;-80
2021/12/28 09:11:36;;;;;;;51.92;24.67;;;-0.40;99.90;;;;;;5038909;28;20028;-80
2021/12/28 09:14:02;;;;;;;53.67;27.30;;;-0.30;99.90;;;;;;5055312;28;20079;-81
2021/12/28 09:16:29;;;;;;;61.92;30.48;;;-0.30;99.90;;;;;;5039532;28;20025;-81
2021/12/28 09:18:54;;;;;;;31.75;15.63;;;-0.20;99.90;;;;;;5039439;28;20034;-81
2021/12/28 09:21:20;;;;;;;13.27;6.55;;;-0.10;99.90;;;;;;5035187;28;20056;-81
2021/12/28 09:23:46;;;;;;;10.80;5.70;;;-0.10;99.90;;;;;;5020156;28;20532;-81
2021/12/28 09:26:11;;;;;;;11.77;5.70;;;0.00;99.90;;;;;;5019904;28;20032;-81
2021/12/28 09:28:37;;;;;;;10.70;5.28;;;0.00;99.90;;;;;;5019087;28;20030;-81
2021/12/28 09:31:03;;;;;;;13.43;7.25;;;0.00;99.90;;;;;;5018968;28;20022;-81
2021/12/28 09:33:28;;;;;;;12.13;6.75;;;0.10;99.90;;;;;;5019432;28;20025;-81
2021/12/28 09:35:55;;;;;;;13.75;6.78;;;0.20;99.90;;;;;;5033985;28;20084;-81
2021/12/28 09:38:22;;;;;;;12.73;7.35;;;0.20;99.90;;;;;;5017706;28;20548;-81
2021/12/28 09:40:50;;;;;;;12.77;7.28;;;0.30;99.90;;;;;;5029602;28;20041;-81
2021/12/28 09:43:15;;;;;;;11.65;6.15;;;0.30;99.90;;;;;;5038312;28;20048;-81
2021/12/28 09:45:41;;;;;;;10.07;5.85;;;0.40;99.90;;;;;;5038557;28;20032;-81
2021/12/28 09:48:09;;;;;;;8.60;4.47;;;0.40;99.90;;;;;;5037269;28;20021;-81
2021/12/28 09:50:36;;;;;;;16.52;8.35;;;0.50;99.90;;;;;;5037178;28;20053;-81
2021/12/28 09:53:02;;;;;;;13.35;6.95;;;0.50;99.90;;;;;;5036731;28;20051;-81
2021/12/28 09:55:29;;;;;;;9.63;5.95;;;0.50;99.90;;;;;;5035645;28;20053;-81
2021/12/28 09:57:56;;;;;;;18.15;9.38;;;0.50;99.90;;;;;;5038403;28;20029;-81
2021/12/28 10:00:23;;;;;;;12.52;6.47;;;0.60;99.90;;;;;;5029601;28;20079;-81
2021/12/28 10:02:49;;;;;;;13.32;7.10;;;0.60;99.90;;;;;;5017559;28;20498;-80
2021/12/28 10:05:19;;;;;;;11.75;6.05;;;0.70;99.90;;;;;;5018760;28;20030;-81
2021/12/28 10:07:48;;;;;;;11.10;6.07;;;0.80;99.90;;;;;;5017365;28;20018;-80
2021/12/28 10:10:15;;;;;;;13.40;7.93;;;0.80;99.90;;;;;;5016968;28;20378;-80
2021/12/28 10:12:48;;;;;;;11.07;6.20;;;0.80;99.90;;;;;;5018388;28;20022;-80
2021/12/28 10:15:18;;;;;;;9.43;5.30;;;0.90;99.90;;;;;;5023060;28;20030;-80
2021/12/28 10:17:49;;;;;;;10.23;4.80;;;1.00;99.90;;;;;;5038687;28;20080;-80
2021/12/28 10:20:24;;;;;;;11.50;5.35;;;1.10;99.90;;;;;;5038541;28;20109;-80
2021/12/28 10:22:54;;;;;;;38.00;20.30;;;1.20;99.90;;;;;;5037726;28;20059;-81
2021/12/28 10:25:23;;;;;;;19.27;9.32;;;1.20;99.90;;;;;;5036742;28;20079;-80
2021/12/28 10:27:52;;;;;;;15.13;7.95;;;1.30;99.90;;;;;;5037915;28;20025;-81
2021/12/28 10:30:24;;;;;;;21.02;8.43;;;1.30;99.90;;;;;;5038805;28;20049;-79
2021/12/28 10:32:56;;;;;;;15.55;8.32;;;1.40;99.90;;;;;;5039016;28;20021;-79
2021/12/28 10:35:26;;;;;;;19.63;8.10;;;1.40;99.90;;;;;;5038781;28;20101;-80
2021/12/28 10:37:55;;;;;;;12.63;6.50;;;1.40;99.90;;;;;;5038054;28;20087;-81
2021/12/28 10:40:34;;;;;;;9.25;5.30;;;1.40;99.90;;;;;;5036951;28;20033;-81
2021/12/28 10:43:06;;;;;;;10.60;6.00;;;1.40;99.90;;;;;;5037587;28;20025;-78
2021/12/28 10:45:40;;;;;;;16.23;9.23;;;1.40;99.90;;;;;;5035424;28;20022;-80
2021/12/28 10:48:15;;;;;;;25.17;10.40;;;1.40;99.90;;;;;;5037967;28;20101;-81
2021/12/28 10:50:59;;;;;;;17.00;8.23;;;1.50;99.90;;;;;;5037619;28;20548;-81
2021/12/28 10:53:35;;;;;;;19.17;9.55;;;1.50;99.90;;;;;;5036822;28;20389;-81
2021/12/28 10:56:10;;;;;;;11.45;6.72;;;1.60;99.90;;;;;;5037092;28;20363;-81
2021/12/28 10:58:41;;;;;;;14.82;7.45;;;1.70;99.90;;;;;;5037388;28;20021;-81
2021/12/28 11:01:18;;;;;;;12.98;6.57;;;1.70;99.90;;;;;;5035512;28;20036;-81
2021/12/28 11:03:57;;;;;;;12.82;8.13;;;1.80;99.90;;;;;;5037452;28;20037;-81
2021/12/28 11:06:28;;;;;;;15.75;8.00;;;1.80;99.90;;;;;;5036432;28;20036;-81
2021/12/28 11:09:01;;;;;;;14.40;7.72;;;1.80;99.90;;;;;;5036417;28;20143;-81
2021/12/28 11:11:28;;;;;;;12.40;7.30;;;1.90;99.90;;;;;;5038064;28;20025;-81
2021/12/28 11:13:57;;;;;;;10.07;5.65;;;1.90;99.90;;;;;;5039341;28;20028;-81
2021/12/28 11:16:26;;;;;;;11.23;6.50;;;1.90;99.90;;;;;;5036874;28;20029;-81
2021/12/28 11:18:53;;;;;;;10.43;6.13;;;2.00;99.90;;;;;;5039550;28;20030;-79
2021/12/28 11:21:25;;;;;;;10.82;6.50;;;2.00;99.90;;;;;;5036534;28;20030;-81
2021/12/28 11:23:54;;;;;;;12.57;7.00;;;2.00;99.90;;;;;;5034714;28;20025;-81
2021/12/28 11:26:20;;;;;;;26.23;11.40;;;2.00;99.90;;;;;;5034987;28;20029;-83
2021/12/28 11:29:06;;;;;;;17.60;9.48;;;2.00;99.90;;;;;;5036963;28;20492;-81
2021/12/28 11:31:41;;;;;;;16.48;7.63;;;2.00;99.90;;;;;;5034501;28;20075;-82
2021/12/28 11:34:26;;;;;;;16.63;9.13;;;2.00;99.90;;;;;;5035990;28;20497;-81
2021/12/28 11:36:57;;;;;;;25.27;12.25;;;2.00;99.90;;;;;;5034517;28;20030;-81
2021/12/28 11:39:28;;;;;;;20.67;10.00;;;2.00;99.90;;;;;;5035944;28;20068;-82
2021/12/28 11:41:55;;;;;;;;;;;2.00;99.90;;;;;;5035346;28;20075;-81
2021/12/28 11:44:23;;;;;;;45.22;21.48;;;2.00;99.90;;;;;;5034085;28;20361;-82
2021/12/28 11:46:51;;;;;;;55.58;21.48;;;2.00;99.90;;;;;;5035528;28;20057;-82
2021/12/28 11:49:18;;;;;;;39.63;16.83;;;2.10;99.90;;;;;;5032734;28;20033;-80
2021/12/28 11:51:47;;;;;;;24.52;14.15;;;2.10;99.90;;;;;;5035713;28;20428;-80
2021/12/28 11:54:14;;;;;;;13.10;7.00;;;2.20;99.90;;;;;;5034932;28;20021;-80
2021/12/28 11:56:44;;;;;;;61.10;29.58;;;2.20;99.90;;;;;;5035425;28;20025;-80
2021/12/28 11:59:28;;;;;;;54.35;28.52;;;2.20;99.90;;;;;;5035180;28;20018;-81
2021/12/28 12:01:54;;;;;;;45.70;25.80;;;2.20;99.90;;;;;;5033663;28;20033;-81
2021/12/28 12:04:34;;;;;;;80.78;41.95;;;2.20;99.90;;;;;;5033692;28;20021;-80
2021/12/28 12:07:09;;;;;;;17.05;9.35;;;2.30;99.90;;;;;;5034030;28;20025;-81
2021/12/28 12:09:50;;;;;;;14.07;7.85;;;2.30;99.90;;;;;;5034418;28;20068;-82
2021/12/28 12:12:27;;;;;;;16.38;9.45;;;2.40;99.90;;;;;;5034401;28;20041;-82
2021/12/28 12:15:00;;;;;;;15.63;8.35;;;2.50;99.90;;;;;;5033865;28;20128;-82
2021/12/28 12:17:26;;;;;;;14.20;8.20;;;2.60;99.90;;;;;;5029496;28;20498;-80
2021/12/28 12:19:54;;;;;;;13.45;8.75;;;2.60;99.90;;;;;;5015978;28;20030;-80
2021/12/28 12:22:32;;;;;;;13.43;6.55;;;2.70;99.90;;;;;;5025855;28;20545;-80
2021/12/28 12:24:59;;;;;;;11.48;6.32;;;2.60;99.90;;;;;;5025629;28;20085;-80
2021/12/28 12:27:48;;;;;;;10.57;5.75;;;2.60;99.90;;;;;;5015102;28;20014;-80
2021/12/28 12:30:23;;;;;;;8.70;5.18;;;2.50;99.90;;;;;;5015422;28;20022;-79
2021/12/28 12:33:08;;;;;;;33.03;12.18;;;2.50;99.90;;;;;;5034447;28;20025;-80
2021/12/28 12:35:55;;;;;;;28.30;12.98;;;2.50;99.90;;;;;;5038538;28;20024;-80
2021/12/28 12:38:24;;;;;;;25.80;11.10;;;2.50;99.90;;;;;;5053491;28;20025;-80
2021/12/28 12:41:11;;;;;;;23.33;10.32;;;2.50;99.90;;;;;;5036448;28;20128;-80
2021/12/28 12:43:45;;;;;;;19.67;10.13;;;2.50;99.90;;;;;;5037639;28;20026;-81
2021/12/28 12:46:24;;;;;;;15.20;7.82;;;2.50;99.90;;;;;;5037977;28;20108;-81
2021/12/28 12:48:53;;;;;;;15.35;8.80;;;2.60;99.90;;;;;;5052632;28;20118;-81
2021/12/28 12:51:21;;;;;;;15.77;8.43;;;2.60;99.90;;;;;;5037388;28;20022;-82